Time;durP1;ratioP1;P1;durP2;ratioP2;P2;SDS_P1;SDS_P2;PMS_P1;PMS_P2;Temp;Humidity;BMP_temperature;BMP_pressure;BME280_temperature;BME280_humidity;BME280_pressure;Samples;Min_cycle;Max_cycle;Signal;HPM_P1;HPM_P2
2023/06/03 00:00:34;;;;;;;9.90;6.20;;;12.10;19.80;;;;;;5021096;28;20434;-70
2023/06/03 00:02:59;;;;;;;7.70;6.97;;;12.10;19.80;;;;;;5019687;28;20179;-69
2023/06/03 00:05:25;;;;;;;9.37;6.43;;;12.10;20.10;;;;;;5020264;28;20415;-69
2023/06/03 00:07:50;;;;;;;7.70;6.90;;;12.00;20.20;;;;;;5020927;28;20175;-70
2023/06/03 00:10:16;;;;;;;7.30;6.60;;;12.00;19.70;;;;;;5019398;28;20202;-70
2023/06/03 00:12:43;;;;;;;9.17;7.53;;;12.00;20.30;;;;;;5018760;28;20188;-70
2023/06/03 00:15:09;;;;;;;8.17;6.53;;;11.90;20.20;;;;;;5021702;28;20210;-69
2023/06/03 00:17:35;;;;;;;9.30;7.57;;;11.90;20.50;;;;;;5019637;28;20427;-69
2023/06/03 00:20:06;;;;;;;10.03;5.70;;;11.80;21.00;;;;;;5021928;28;20456;-69
2023/06/03 00:22:37;;;;;;;7.67;6.03;;;11.80;21.10;;;;;;5021069;28;20258;-70
2023/06/03 00:25:08;;;;;;;7.43;6.13;;;11.80;21.30;;;;;;5020831;28;20787;-69
2023/06/03 00:27:34;;;;;;;11.83;8.17;;;11.70;21.40;;;;;;5019319;28;20416;-69
2023/06/03 00:30:05;;;;;;;10.30;6.03;;;11.70;21.40;;;;;;5020759;28;20444;-70
2023/06/03 00:32:31;;;;;;;9.30;7.30;;;11.70;21.80;;;;;;5020842;28;20458;-69
2023/06/03 00:34:57;;;;;;;8.60;6.30;;;11.60;23.20;;;;;;5019684;28;20926;-70
2023/06/03 00:37:22;;;;;;;8.43;5.73;;;11.60;22.80;;;;;;5020159;28;20266;-70
2023/06/03 00:39:48;;;;;;;8.80;6.43;;;11.60;22.70;;;;;;5019477;28;20257;-69
2023/06/03 00:42:14;;;;;;;8.93;5.40;;;11.60;22.40;;;;;;5021014;28;20236;-69
2023/06/03 00:44:39;;;;;;;8.97;6.50;;;11.60;22.50;;;;;;5021288;28;20244;-69
2023/06/03 00:47:06;;;;;;;7.50;5.50;;;11.60;22.20;;;;;;5020611;28;20183;-70
2023/06/03 00:49:32;;;;;;;11.17;6.70;;;11.60;22.70;;;;;;5021396;28;20174;-69
2023/06/03 00:51:58;;;;;;;12.17;6.57;;;11.50;22.90;;;;;;5020923;28;20932;-70
2023/06/03 00:54:25;;;;;;;8.93;6.93;;;11.50;23.10;;;;;;5021924;28;20421;-69
2023/06/03 00:56:51;;;;;;;10.80;7.47;;;11.40;23.50;;;;;;5022515;28;20551;-70
2023/06/03 00:59:17;;;;;;;7.60;6.37;;;11.40;23.50;;;;;;5021652;28;20461;-70
2023/06/03 01:01:44;;;;;;;9.47;5.90;;;11.40;23.50;;;;;;5020668;28;20523;-70
2023/06/03 01:04:11;;;;;;;7.93;6.10;;;11.40;23.70;;;;;;5021387;28;20792;-69
2023/06/03 01:06:45;;;;;;;11.90;6.80;;;11.30;23.70;;;;;;5020787;28;20424;-70
2023/06/03 01:09:39;;;;;;;8.50;5.90;;;11.30;23.70;;;;;;5021214;28;20857;-70
2023/06/03 01:12:29;;;;;;;7.03;6.03;;;11.30;24.80;;;;;;5019135;28;20436;-70
2023/06/03 01:14:59;;;;;;;12.80;5.97;;;11.20;24.20;;;;;;5021220;28;20852;-70
2023/06/03 01:17:27;;;;;;;8.33;6.33;;;11.20;24.70;;;;;;5020347;28;20418;-70
2023/06/03 01:19:56;;;;;;;10.57;6.93;;;11.20;24.90;;;;;;5020204;28;20492;-69
2023/06/03 01:22:26;;;;;;;8.40;5.87;;;11.20;25.30;;;;;;5020529;28;20420;-69
2023/06/03 01:25:08;;;;;;;9.20;6.33;;;11.10;26.00;;;;;;5021299;28;20406;-70
2023/06/03 01:27:38;;;;;;;8.60;5.93;;;11.20;25.20;;;;;;5022253;28;20500;-70
2023/06/03 01:30:09;;;;;;;9.50;6.43;;;11.20;25.40;;;;;;5022468;28;20560;-70
2023/06/03 01:32:37;;;;;;;7.23;5.90;;;11.20;24.50;;;;;;5024191;28;20419;-70
2023/06/03 01:35:03;;;;;;;7.43;6.40;;;11.20;24.90;;;;;;5024249;28;20441;-70
2023/06/03 01:37:30;;;;;;;11.50;6.73;;;11.10;25.20;;;;;;5024366;28;20414;-69
2023/06/03 01:39:56;;;;;;;8.47;6.50;;;11.10;24.80;;;;;;5025277;28;20453;-69
2023/06/03 01:42:22;;;;;;;11.77;6.70;;;11.10;24.50;;;;;;5024222;28;20443;-70
2023/06/03 01:44:48;;;;;;;8.67;7.00;;;11.10;24.50;;;;;;5025732;28;20420;-70
2023/06/03 01:47:14;;;;;;;7.80;6.27;;;11.00;24.80;;;;;;5024951;28;20197;-69
2023/06/03 01:49:40;;;;;;;8.10;6.23;;;10.90;24.90;;;;;;5025259;28;20915;-69
2023/06/03 01:52:06;;;;;;;12.73;6.83;;;10.90;25.70;;;;;;5025139;28;20434;-69
2023/06/03 01:54:31;;;;;;;7.90;7.03;;;10.80;25.60;;;;;;5023870;28;20453;-70
2023/06/03 01:56:57;;;;;;;12.70;7.73;;;10.70;25.50;;;;;;5023460;28;20268;-70
2023/06/03 01:59:24;;;;;;;8.43;7.37;;;10.70;26.10;;;;;;5024263;28;20175;-70
2023/06/03 02:01:55;;;;;;;13.93;7.17;;;10.70;26.70;;;;;;5025511;28;20426;-69
2023/06/03 02:04:21;;;;;;;9.37;6.00;;;10.60;27.10;;;;;;5025550;28;20484;-70
2023/06/03 02:06:55;;;;;;;10.40;8.40;;;10.60;27.10;;;;;;5024977;28;20420;-70
2023/06/03 02:09:21;;;;;;;11.37;7.53;;;10.50;27.60;;;;;;5024574;28;20434;-69
2023/06/03 02:11:48;;;;;;;10.80;7.00;;;10.50;27.50;;;;;;5024969;28;20500;-70
2023/06/03 02:14:14;;;;;;;10.70;7.47;;;10.40;27.90;;;;;;5025659;28;20427;-69
2023/06/03 02:16:40;;;;;;;13.10;7.90;;;10.50;27.90;;;;;;5024971;28;20515;-69
2023/06/03 02:19:21;;;;;;;8.60;7.23;;;10.40;28.60;;;;;;5026411;28;20454;-68
2023/06/03 02:21:47;;;;;;;9.73;6.90;;;10.50;28.30;;;;;;5025314;28;20524;-69
2023/06/03 02:24:16;;;;;;;10.60;7.63;;;10.50;28.20;;;;;;5026281;28;20418;-69
2023/06/03 02:26:49;;;;;;;10.10;6.47;;;10.50;31.20;;;;;;5026196;28;20418;-70
2023/06/03 02:29:19;;;;;;;8.00;6.57;;;10.50;35.80;;;;;;5026213;28;20500;-69
2023/06/03 02:31:45;;;;;;;10.30;7.60;;;10.50;37.30;;;;;;5025659;28;20540;-70
2023/06/03 02:34:11;;;;;;;9.70;7.53;;;10.50;36.60;;;;;;5026712;28;20432;-70
2023/06/03 02:36:38;;;;;;;10.27;7.73;;;10.40;36.30;;;;;;5025287;28;20457;-69
2023/06/03 02:39:04;;;;;;;11.67;8.13;;;10.30;36.40;;;;;;5025571;28;20180;-69
2023/06/03 02:41:30;;;;;;;10.20;7.40;;;10.40;36.60;;;;;;5022759;28;20440;-69
2023/06/03 02:43:55;;;;;;;10.17;7.77;;;10.30;35.80;;;;;;5025198;28;20181;-69
2023/06/03 02:46:21;;;;;;;11.47;8.33;;;10.30;36.40;;;;;;5024327;28;20190;-69
2023/06/03 02:48:47;;;;;;;8.23;7.07;;;10.30;36.50;;;;;;5025190;28;20201;-68
2023/06/03 02:51:12;;;;;;;12.63;8.60;;;10.20;36.60;;;;;;5024230;28;20214;-68
2023/06/03 02:53:38;;;;;;;10.97;6.57;;;10.20;37.20;;;;;;5023823;28;20447;-69
2023/06/03 02:56:04;;;;;;;9.00;6.03;;;10.20;38.80;;;;;;5025549;28;20198;-69
2023/06/03 02:58:29;;;;;;;9.70;7.20;;;10.20;38.10;;;;;;5025475;28;20221;-69
2023/06/03 03:00:55;;;;;;;11.23;7.53;;;10.10;39.40;;;;;;5026033;28;20203;-69
2023/06/03 03:03:20;;;;;;;7.97;7.17;;;10.10;40.20;;;;;;5025387;28;20180;-69
2023/06/03 03:05:47;;;;;;;8.83;6.80;;;10.10;41.40;;;;;;5025919;28;20209;-70
2023/06/03 03:08:13;;;;;;;9.23;6.30;;;10.10;40.20;;;;;;5025027;28;20182;-69
2023/06/03 03:10:39;;;;;;;9.00;7.00;;;10.10;39.00;;;;;;5026696;28;20795;-69
2023/06/03 03:13:04;;;;;;;8.07;6.47;;;10.10;38.10;;;;;;5025471;28;20188;-69
2023/06/03 03:15:30;;;;;;;7.80;6.70;;;10.10;35.50;;;;;;5025957;28;20233;-69
2023/06/03 03:17:55;;;;;;;9.40;7.50;;;10.10;35.10;;;;;;5025666;28;20187;-69
2023/06/03 03:20:21;;;;;;;12.17;8.10;;;10.00;36.20;;;;;;5026489;28;20196;-70
2023/06/03 03:22:49;;;;;;;7.77;6.60;;;10.00;36.80;;;;;;5024599;28;20203;-69
2023/06/03 03:25:15;;;;;;;10.03;7.47;;;10.00;37.30;;;;;;5025696;28;20233;-69
2023/06/03 03:27:40;;;;;;;11.03;7.90;;;10.00;37.40;;;;;;5024773;28;20429;-69
2023/06/03 03:30:07;;;;;;;8.70;7.60;;;10.00;37.00;;;;;;5026109;28;20249;-68
2023/06/03 03:32:34;;;;;;;10.70;6.73;;;10.00;37.50;;;;;;5025364;28;20248;-69
2023/06/03 03:35:03;;;;;;;10.13;6.73;;;10.00;38.00;;;;;;5026120;28;20440;-69
2023/06/03 03:37:28;;;;;;;9.57;6.77;;;9.90;40.70;;;;;;5025916;28;20473;-69
2023/06/03 03:39:54;;;;;;;10.80;6.37;;;9.90;41.40;;;;;;5025406;28;20437;-69
2023/06/03 03:42:20;;;;;;;8.77;6.83;;;9.90;40.80;;;;;;5025860;28;20551;-69
2023/06/03 03:44:45;;;;;;;7.47;6.60;;;9.90;40.60;;;;;;5025844;28;20528;-69
2023/06/03 03:47:20;;;;;;;8.77;6.63;;;10.00;41.30;;;;;;5025652;28;20240;-69
2023/06/03 03:49:45;;;;;;;12.83;6.83;;;10.00;36.40;;;;;;5025541;28;20291;-68
2023/06/03 03:52:13;;;;;;;6.87;6.03;;;10.00;36.60;;;;;;5025767;28;20418;-69
2023/06/03 03:54:38;;;;;;;14.80;7.20;;;10.00;35.40;;;;;;5026086;28;20222;-69
2023/06/03 03:57:12;;;;;;;9.40;6.90;;;10.00;35.50;;;;;;5026076;28;20468;-69
2023/06/03 03:59:38;;;;;;;7.87;6.70;;;10.00;35.50;;;;;;5026539;28;20648;-69
2023/06/03 04:02:04;;;;;;;10.40;6.27;;;10.00;34.80;;;;;;5026149;28;20418;-69
2023/06/03 04:04:40;;;;;;;9.63;6.73;;;10.00;35.00;;;;;;5026846;28;20187;-68
2023/06/03 04:07:07;;;;;;;9.80;6.23;;;10.00;34.70;;;;;;5028130;28;20538;-68
2023/06/03 04:09:33;;;;;;;9.40;6.50;;;10.10;34.60;;;;;;5027210;28;20457;-68
2023/06/03 04:12:01;;;;;;;8.87;7.30;;;10.10;34.50;;;;;;5028139;28;20440;-68
2023/06/03 04:14:44;;;;;;;8.30;7.47;;;10.10;34.30;;;;;;5026241;28;20197;-69
2023/06/03 04:17:12;;;;;;;14.17;6.77;;;10.20;34.30;;;;;;5024432;28;20494;-69
2023/06/03 04:19:41;;;;;;;8.63;6.53;;;10.20;34.70;;;;;;5024988;28;20426;-69
2023/06/03 04:22:08;;;;;;;9.37;8.37;;;10.30;34.90;;;;;;5024097;28;20420;-69
2023/06/03 04:24:35;;;;;;;13.20;8.43;;;10.30;36.00;;;;;;5025327;28;20421;-69
2023/06/03 04:27:04;;;;;;;10.10;6.90;;;10.40;35.00;;;;;;5024086;28;20414;-69
2023/06/03 04:29:32;;;;;;;8.80;6.73;;;10.50;35.30;;;;;;5023514;28;20418;-68
2023/06/03 04:31:58;;;;;;;8.47;7.30;;;10.60;31.50;;;;;;5036519;22;20508;-73
2023/06/03 04:34:28;;;;;;;11.13;7.60;;;10.70;29.20;;;;;;5013010;28;20406;-73
2023/06/03 04:36:53;;;;;;;8.67;6.57;;;10.70;27.80;;;;;;5014566;28;20723;-73
2023/06/03 04:39:19;;;;;;;7.43;5.83;;;10.80;27.30;;;;;;5015046;28;20449;-72
2023/06/03 04:41:45;;;;;;;8.43;6.70;;;10.80;27.30;;;;;;5012968;28;20729;-72
2023/06/03 04:44:13;;;;;;;11.13;6.97;;;11.00;26.00;;;;;;5013480;28;20201;-72
2023/06/03 04:46:40;;;;;;;7.47;6.20;;;11.10;25.50;;;;;;5013291;28;20412;-72
2023/06/03 04:49:08;;;;;;;14.20;7.03;;;11.20;25.10;;;;;;5011421;28;20421;-73
2023/06/03 04:51:34;;;;;;;11.10;6.97;;;11.30;24.70;;;;;;5012116;28;20450;-72
2023/06/03 04:54:00;;;;;;;8.20;6.33;;;11.40;23.50;;;;;;5013168;28;20433;-72
2023/06/03 04:56:30;;;;;;;7.67;6.17;;;11.50;23.20;;;;;;5012272;28;20468;-73
2023/06/03 04:59:00;;;;;;;10.20;7.03;;;11.60;22.30;;;;;;5013751;28;20449;-73
2023/06/03 05:01:27;;;;;;;7.30;6.60;;;11.80;21.90;;;;;;5011978;28;20455;-74
2023/06/03 05:03:53;;;;;;;8.63;6.27;;;11.90;20.70;;;;;;5013216;28;20433;-73
2023/06/03 05:06:19;;;;;;;8.93;5.50;;;12.00;20.60;;;;;;5016204;28;20442;-73
2023/06/03 05:08:48;;;;;;;11.33;6.33;;;12.20;19.90;;;;;;5017652;28;20433;-72
2023/06/03 05:11:18;;;;;;;6.50;5.70;;;12.30;19.90;;;;;;5016032;28;20529;-72
2023/06/03 05:13:44;;;;;;;9.10;6.43;;;12.50;18.90;;;;;;5015783;28;20434;-72
2023/06/03 05:16:10;;;;;;;9.87;6.10;;;12.60;19.10;;;;;;5016759;28;20868;-72
2023/06/03 05:18:36;;;;;;;8.73;6.33;;;12.70;18.20;;;;;;5016664;28;20932;-73
2023/06/03 05:21:02;;;;;;;7.87;6.13;;;12.90;18.30;;;;;;5017028;28;20454;-72
2023/06/03 05:23:28;;;;;;;9.73;6.87;;;13.00;16.80;;;;;;5015859;28;20426;-72
2023/06/03 05:25:54;;;;;;;8.53;5.60;;;13.10;16.90;;;;;;5016705;28;20421;-72
2023/06/03 05:28:19;;;;;;;8.07;5.73;;;13.30;16.80;;;;;;5016665;28;20180;-73
2023/06/03 05:30:45;;;;;;;9.30;7.33;;;13.40;16.40;;;;;;5017058;28;20213;-73
2023/06/03 05:33:26;;;;;;;12.30;6.97;;;13.60;15.10;;;;;;5016842;28;20176;-70
2023/06/03 05:35:51;;;;;;;8.93;6.10;;;13.90;20.40;;;;;;5016528;28;20201;-72
2023/06/03 05:38:17;;;;;;;8.67;5.60;;;14.30;19.20;;;;;;5014879;28;20493;-72
2023/06/03 05:40:43;;;;;;;8.40;4.90;;;14.60;19.80;;;;;;5015064;28;20277;-72
2023/06/03 05:43:09;;;;;;;13.17;5.50;;;14.80;17.40;;;;;;5015062;28;20165;-73
2023/06/03 05:45:35;;;;;;;11.93;5.10;;;15.20;17.60;;;;;;5015013;28;20472;-72
2023/06/03 05:48:00;;;;;;;8.60;6.00;;;16.60;16.20;;;;;;5016089;28;20189;-72
2023/06/03 05:50:26;;;;;;;9.20;5.50;;;17.60;10.50;;;;;;5014659;28;20274;-72
2023/06/03 05:52:51;;;;;;;6.40;5.07;;;19.00;8.70;;;;;;5014658;28;20176;-73
2023/06/03 05:55:17;;;;;;;7.87;5.60;;;21.40;1.00;;;;;;5013581;28;20200;-73
2023/06/03 05:57:42;;;;;;;13.13;6.20;;;22.60;1.00;;;;;;5014366;28;20230;-73
2023/06/03 06:00:09;;;;;;;6.60;5.90;;;24.20;1.00;;;;;;5014816;28;20275;-73
2023/06/03 06:02:34;;;;;;;8.97;6.17;;;25.20;1.00;;;;;;5015411;28;20585;-74
2023/06/03 06:05:00;;;;;;;8.70;6.33;;;26.10;1.00;;;;;;5014970;28;20502;-73
2023/06/03 06:07:26;;;;;;;7.60;6.53;;;25.50;1.00;;;;;;5015316;28;20187;-73
2023/06/03 06:09:52;;;;;;;8.40;6.60;;;27.10;1.00;;;;;;5016878;28;20675;-73
2023/06/03 06:12:18;;;;;;;8.30;6.40;;;28.30;1.00;;;;;;5015222;28;20319;-73
2023/06/03 06:14:43;;;;;;;10.40;7.60;;;29.40;1.00;;;;;;5014200;28;20490;-73
2023/06/03 06:17:10;;;;;;;7.90;6.57;;;29.10;1.00;;;;;;5013332;28;20298;-73
2023/06/03 06:19:35;;;;;;;7.70;6.30;;;29.80;1.00;;;;;;5015561;28;20172;-74
2023/06/03 06:22:01;;;;;;;11.07;6.50;;;30.30;1.00;;;;;;5014181;28;20431;-73
2023/06/03 06:24:27;;;;;;;6.10;5.60;;;30.80;1.00;;;;;;5015033;28;20191;-74
2023/06/03 06:26:53;;;;;;;7.43;6.17;;;30.80;1.00;;;;;;5015692;28;20187;-73
2023/06/03 06:29:18;;;;;;;6.90;6.20;;;31.60;1.00;;;;;;5014939;28;20191;-74
2023/06/03 06:31:44;;;;;;;6.83;6.17;;;30.20;1.00;;;;;;5013984;28;20446;-73
2023/06/03 06:34:15;;;;;;;7.47;6.47;;;31.40;1.00;;;;;;5015458;28;20176;-74
2023/06/03 06:36:44;;;;;;;9.80;6.93;;;32.50;1.00;;;;;;5013675;28;20501;-73
2023/06/03 06:39:41;;;;;;;6.73;6.13;;;33.60;1.00;;;;;;5013699;28;20415;-73
2023/06/03 06:42:10;;;;;;;7.57;6.83;;;33.70;1.00;;;;;;5014946;28;20427;-74
2023/06/03 06:44:45;;;;;;;7.83;6.80;;;32.60;1.00;;;;;;5014321;28;20419;-73
2023/06/03 06:47:11;;;;;;;7.00;6.47;;;33.00;1.00;;;;;;5014900;28;20468;-74
2023/06/03 06:49:37;;;;;;;9.93;6.77;;;32.60;1.00;;;;;;5013661;28;20458;-73
2023/06/03 06:52:03;;;;;;;8.83;6.93;;;32.20;1.00;;;;;;5014211;28;20470;-73
2023/06/03 06:54:28;;;;;;;9.10;7.23;;;31.60;1.00;;;;;;5014927;28;20192;-73
2023/06/03 06:56:54;;;;;;;8.47;6.73;;;32.40;1.00;;;;;;5014833;28;20254;-73
2023/06/03 06:59:19;;;;;;;7.70;6.90;;;32.30;1.00;;;;;;5013493;28;20259;-73
2023/06/03 07:01:45;;;;;;;6.67;6.07;;;32.50;1.00;;;;;;5014339;28;20262;-74
2023/06/03 07:04:11;;;;;;;9.53;7.10;;;32.60;1.00;;;;;;5014811;28;20226;-73
2023/06/03 07:06:36;;;;;;;6.73;6.13;;;32.00;1.00;;;;;;5013680;28;20188;-73
2023/06/03 07:09:02;;;;;;;11.53;6.70;;;31.50;1.00;;;;;;5014010;28;20180;-73
2023/06/03 07:11:32;;;;;;;8.63;6.40;;;31.90;1.00;;;;;;5014348;28;20276;-75
2023/06/03 07:13:57;;;;;;;9.47;6.80;;;32.70;1.00;;;;;;5015212;28;20218;-74
2023/06/03 07:16:24;;;;;;;6.87;6.30;;;32.80;1.00;;;;;;5013761;28;20979;-74
2023/06/03 07:18:53;;;;;;;7.17;6.43;;;33.40;1.00;;;;;;5013739;28;20179;-74
2023/06/03 07:21:23;;;;;;;9.27;7.00;;;34.00;1.00;;;;;;5014172;28;20439;-74
2023/06/03 07:23:49;;;;;;;6.40;5.90;;;32.60;1.00;;;;;;5014331;28;20762;-73
2023/06/03 07:26:15;;;;;;;8.70;6.43;;;32.40;1.00;;;;;;5014480;28;20441;-73
2023/06/03 07:28:40;;;;;;;7.00;5.90;;;32.50;1.00;;;;;;5012885;28;20418;-73
2023/06/03 07:31:09;;;;;;;11.27;8.00;;;31.90;1.00;;;;;;5013166;28;20703;-74
2023/06/03 07:33:44;;;;;;;7.30;6.70;;;32.60;1.00;;;;;;5013830;28;20180;-74
2023/06/03 07:36:12;;;;;;;7.67;6.50;;;32.70;1.00;;;;;;5013727;28;20458;-74
2023/06/03 07:38:38;;;;;;;6.90;6.27;;;32.90;1.00;;;;;;5013611;28;20418;-74
2023/06/03 07:41:08;;;;;;;8.03;7.33;;;32.90;1.00;;;;;;5014082;28;20836;-74
2023/06/03 07:43:35;;;;;;;6.80;6.30;;;34.60;1.00;;;;;;5012357;28;20509;-74
2023/06/03 07:46:05;;;;;;;6.90;6.20;;;34.20;1.00;;;;;;5013715;28;20453;-74
2023/06/03 07:48:31;;;;;;;7.07;6.57;;;33.80;1.00;;;;;;5013930;28;20482;-74
2023/06/03 07:50:57;;;;;;;12.17;7.70;;;34.20;1.00;;;;;;5013240;28;20446;-74
2023/06/03 07:53:24;;;;;;;6.53;5.93;;;34.80;1.00;;;;;;5012680;28;20485;-74
2023/06/03 07:55:50;;;;;;;7.33;6.60;;;34.40;1.00;;;;;;5013840;28;20203;-72
2023/06/03 07:58:17;;;;;;;28.83;7.47;;;35.20;1.00;;;;;;5013490;28;20423;-74
2023/06/03 08:00:43;;;;;;;8.10;7.47;;;34.00;1.00;;;;;;5011582;28;20438;-74
2023/06/03 08:03:08;;;;;;;9.33;7.23;;;34.10;1.00;;;;;;5013841;28;20797;-74
2023/06/03 08:05:36;;;;;;;6.10;5.60;;;33.90;1.00;;;;;;5016266;28;20422;-74
2023/06/03 08:08:05;;;;;;;7.40;6.63;;;34.10;1.00;;;;;;5016041;28;20661;-74
2023/06/03 08:10:33;;;;;;;6.87;6.17;;;34.40;1.00;;;;;;5012453;28;20450;-74
2023/06/03 08:12:59;;;;;;;8.27;7.00;;;34.90;1.00;;;;;;5013061;28;20419;-74
2023/06/03 08:15:27;;;;;;;7.57;6.70;;;36.10;1.00;;;;;;5013283;28;20847;-75
2023/06/03 08:17:53;;;;;;;8.43;7.20;;;35.00;1.00;;;;;;5012826;28;20486;-74
2023/06/03 08:20:28;;;;;;;6.90;6.30;;;34.60;1.00;;;;;;5012655;28;21014;-74
2023/06/03 08:22:55;;;;;;;7.33;6.57;;;35.20;1.00;;;;;;5013085;28;20963;-75
2023/06/03 08:25:21;;;;;;;7.93;7.13;;;36.00;1.00;;;;;;5012719;28;20506;-74
2023/06/03 08:27:47;;;;;;;7.57;6.70;;;37.30;1.00;;;;;;5012874;28;20450;-74
2023/06/03 08:30:14;;;;;;;7.53;6.90;;;35.80;1.00;;;;;;5012887;28;20219;-74
2023/06/03 08:32:40;;;;;;;6.90;6.50;;;36.10;1.00;;;;;;5012980;28;20861;-75
2023/06/03 08:35:10;;;;;;;9.73;7.50;;;35.80;1.00;;;;;;5010290;28;20415;-74
2023/06/03 08:37:36;;;;;;;17.77;8.07;;;36.10;1.00;;;;;;5013287;28;20181;-74
2023/06/03 08:40:06;;;;;;;7.80;7.03;;;36.20;1.00;;;;;;5010979;28;20909;-75
2023/06/03 08:42:38;;;;;;;7.63;6.23;;;37.00;1.00;;;;;;5012760;28;20418;-72
2023/06/03 08:45:06;;;;;;;7.37;6.77;;;36.60;1.00;;;;;;5013157;28;20415;-72
2023/06/03 08:47:52;;;;;;;7.03;6.53;;;37.70;1.00;;;;;;5011563;28;20407;-72
2023/06/03 08:50:22;;;;;;;10.03;6.47;;;36.80;1.00;;;;;;5013022;28;20457;-72
2023/06/03 08:52:50;;;;;;;7.33;6.63;;;37.60;1.00;;;;;;5012941;28;20411;-72
2023/06/03 08:55:16;;;;;;;7.40;6.70;;;36.10;1.00;;;;;;5012744;28;20514;-72
2023/06/03 08:57:54;;;;;;;7.37;6.40;;;36.50;1.00;;;;;;5011648;28;20431;-72
2023/06/03 09:00:26;;;;;;;9.10;7.40;;;36.60;1.00;;;;;;5012782;28;20431;-73
2023/06/03 09:02:52;;;;;;;7.93;7.13;;;34.50;1.00;;;;;;5012974;28;20426;-72
2023/06/03 09:05:19;;;;;;;8.33;7.50;;;33.80;1.00;;;;;;5011593;28;20414;-71
2023/06/03 09:07:48;;;;;;;8.00;7.20;;;34.60;1.00;;;;;;5012851;28;20433;-72
2023/06/03 09:10:17;;;;;;;7.13;6.50;;;34.90;1.00;;;;;;5013058;28;20433;-72
2023/06/03 09:12:45;;;;;;;8.67;7.77;;;34.20;1.00;;;;;;5012001;28;20407;-72
2023/06/03 09:15:14;;;;;;;7.80;7.10;;;32.40;1.00;;;;;;5011982;28;20745;-72
2023/06/03 09:17:43;;;;;;;8.10;7.23;;;29.50;1.00;;;;;;5012983;28;20495;-72
2023/06/03 09:20:10;;;;;;;7.93;7.00;;;27.50;1.00;;;;;;5011207;28;20982;-71
2023/06/03 09:22:36;;;;;;;6.97;6.47;;;25.90;1.00;;;;;;5011881;28;20838;-71
2023/06/03 09:25:03;;;;;;;7.07;6.47;;;24.70;1.00;;;;;;5010839;28;20419;-73
2023/06/03 09:27:29;;;;;;;8.13;7.37;;;24.20;1.00;;;;;;5012830;28;20506;-73
2023/06/03 09:29:55;;;;;;;8.00;7.20;;;23.70;1.00;;;;;;5011436;28;20853;-73
2023/06/03 09:32:21;;;;;;;6.80;6.10;;;23.40;1.00;;;;;;5009979;28;20184;-74
2023/06/03 09:34:46;;;;;;;9.47;6.80;;;23.40;1.00;;;;;;5011450;28;20476;-73
2023/06/03 09:37:12;;;;;;;7.10;6.40;;;23.50;1.00;;;;;;5011602;28;20626;-73
2023/06/03 09:39:38;;;;;;;11.33;6.90;;;23.50;1.00;;;;;;5013357;28;20184;-73
2023/06/03 09:42:04;;;;;;;6.80;6.10;;;23.40;1.00;;;;;;5011634;28;20204;-73
2023/06/03 09:44:45;;;;;;;7.33;6.63;;;23.30;1.00;;;;;;5012850;28;20267;-73
2023/06/03 09:47:11;;;;;;;7.07;6.37;;;23.30;1.00;;;;;;5012396;28;20426;-73
2023/06/03 09:49:37;;;;;;;7.60;6.93;;;23.40;1.00;;;;;;5011196;28;20419;-73
2023/06/03 09:52:09;;;;;;;7.93;7.13;;;23.50;1.00;;;;;;5012986;28;20211;-73
2023/06/03 09:54:35;;;;;;;9.37;7.47;;;23.60;1.00;;;;;;5014591;28;20457;-73
2023/06/03 09:57:11;;;;;;;15.13;6.43;;;23.40;1.00;;;;;;5014348;28;20458;-73
2023/06/03 09:59:37;;;;;;;8.23;7.27;;;23.50;1.00;;;;;;5014592;28;20168;-73
2023/06/03 10:02:10;;;;;;;9.83;7.10;;;23.30;1.00;;;;;;5016615;28;20443;-73
2023/06/03 10:04:46;;;;;;;8.77;7.30;;;23.50;1.00;;;;;;5014776;28;20452;-74
2023/06/03 10:07:17;;;;;;;8.03;7.23;;;23.40;1.00;;;;;;5015043;28;20418;-74
2023/06/03 10:09:45;;;;;;;7.03;6.00;;;23.40;1.00;;;;;;5015128;28;20426;-73
2023/06/03 10:12:11;;;;;;;7.97;6.17;;;23.60;1.00;;;;;;5014258;28;20962;-73
2023/06/03 10:14:48;;;;;;;8.60;7.40;;;23.60;1.00;;;;;;5014834;28;20430;-74
2023/06/03 10:17:15;;;;;;;11.03;7.43;;;23.60;1.00;;;;;;5015725;28;20465;-73
2023/06/03 10:19:43;;;;;;;10.03;6.50;;;23.40;1.00;;;;;;5014343;28;20426;-74
2023/06/03 10:22:12;;;;;;;6.77;6.13;;;23.40;1.00;;;;;;5014969;28;20438;-73
2023/06/03 10:24:40;;;;;;;7.80;7.20;;;23.40;1.00;;;;;;5014057;28;20924;-73
2023/06/03 10:27:07;;;;;;;7.40;6.70;;;23.40;1.00;;;;;;5015389;28;20422;-73
2023/06/03 10:29:33;;;;;;;8.60;7.50;;;23.50;1.00;;;;;;5014106;28;20427;-73
2023/06/03 10:32:02;;;;;;;9.13;7.33;;;23.50;1.00;;;;;;5015285;28;20465;-71
2023/06/03 10:34:34;;;;;;;12.87;7.77;;;23.70;1.00;;;;;;5016347;28;20411;-71
2023/06/03 10:37:01;;;;;;;11.40;7.30;;;23.70;1.00;;;;;;5016033;28;20446;-72
2023/06/03 10:39:31;;;;;;;7.63;6.90;;;23.60;1.00;;;;;;5015267;28;20553;-72
2023/06/03 10:42:01;;;;;;;6.80;6.20;;;23.60;1.00;;;;;;5015950;28;20435;-71
2023/06/03 10:44:28;;;;;;;7.60;6.90;;;23.70;1.00;;;;;;5016741;28;20793;-72
2023/06/03 10:47:11;;;;;;;11.37;7.23;;;23.90;1.00;;;;;;5015708;28;20502;-72
2023/06/03 10:49:40;;;;;;;7.17;6.67;;;24.00;1.00;;;;;;5016186;28;20407;-72
2023/06/03 10:52:36;;;;;;;11.87;7.47;;;24.00;1.00;;;;;;5014233;28;20435;-72
2023/06/03 10:55:11;;;;;;;8.57;7.70;;;24.20;1.00;;;;;;5014987;28;20411;-71
2023/06/03 10:57:46;;;;;;;10.80;7.20;;;24.20;1.00;;;;;;5015599;28;20407;-74
2023/06/03 11:00:12;;;;;;;9.03;7.03;;;24.20;1.00;;;;;;5015629;28;20427;-72
2023/06/03 11:03:06;;;;;;;8.13;7.43;;;24.40;1.00;;;;;;5015679;28;20807;-72
2023/06/03 11:05:32;;;;;;;7.30;6.73;;;24.50;1.00;;;;;;5014956;28;20411;-72
2023/06/03 11:07:58;;;;;;;7.17;6.43;;;24.70;1.00;;;;;;5014821;28;20557;-73
2023/06/03 11:10:39;;;;;;;8.00;6.93;;;24.90;1.00;;;;;;5015201;28;20207;-72
2023/06/03 11:13:05;;;;;;;8.43;7.37;;;25.00;1.00;;;;;;5015150;28;20175;-73
2023/06/03 11:15:58;;;;;;;7.90;7.20;;;25.00;1.00;;;;;;5013820;28;20479;-71
2023/06/03 11:18:23;;;;;;;12.90;8.13;;;25.00;1.00;;;;;;5014533;28;20510;-71
2023/06/03 11:20:49;;;;;;;8.23;7.47;;;25.20;1.00;;;;;;5014444;28;20477;-73
2023/06/03 11:23:50;;;;;;;11.10;8.17;;;25.60;1.00;;;;;;5013135;28;20279;-72
2023/06/03 11:26:35;;;;;;;8.33;7.33;;;25.90;1.00;;;;;;4972555;28;20312;-71
2023/06/03 11:29:05;;;;;;;7.83;7.13;;;26.30;1.00;;;;;;5011252;28;20423;-72
2023/06/03 11:31:32;;;;;;;7.87;6.87;;;26.20;1.00;;;;;;5013444;28;20508;-71
2023/06/03 11:34:25;;;;;;;8.13;7.43;;;26.50;1.00;;;;;;5014106;28;20801;-72
2023/06/03 11:36:52;;;;;;;8.40;7.23;;;26.80;1.00;;;;;;5014309;28;20516;-71
2023/06/03 11:39:19;;;;;;;7.60;6.90;;;27.00;1.00;;;;;;5014601;28;20781;-74
2023/06/03 11:42:08;;;;;;;7.80;7.10;;;26.70;1.00;;;;;;5014344;28;20427;-72
2023/06/03 11:44:35;;;;;;;7.60;6.43;;;26.40;1.00;;;;;;5013195;28;20415;-73
2023/06/03 11:47:01;;;;;;;8.73;6.87;;;26.00;1.00;;;;;;5014223;28;20415;-72
2023/06/03 11:49:26;;;;;;;8.77;7.50;;;25.60;1.00;;;;;;5014916;28;20422;-73
2023/06/03 11:51:57;;;;;;;7.97;7.27;;;25.50;1.00;;;;;;5014631;28;20898;-74
2023/06/03 11:54:23;;;;;;;7.20;6.70;;;25.70;1.00;;;;;;5013963;28;20172;-73
2023/06/03 11:56:51;;;;;;;8.40;5.97;;;26.00;1.00;;;;;;5014514;28;20761;-71
2023/06/03 11:59:20;;;;;;;7.07;6.37;;;26.60;1.00;;;;;;5015258;28;20679;-71
2023/06/03 12:02:03;;;;;;;7.27;6.77;;;27.20;1.00;;;;;;5014697;28;20431;-72
2023/06/03 12:04:30;;;;;;;7.70;6.90;;;27.30;1.00;;;;;;5013144;28;20403;-70
2023/06/03 12:06:57;;;;;;;6.87;6.27;;;27.10;1.00;;;;;;5015637;28;20487;-73
2023/06/03 12:09:25;;;;;;;8.00;7.30;;;26.90;1.00;;;;;;5015148;28;20730;-71
2023/06/03 12:11:50;;;;;;;7.53;6.83;;;26.90;1.00;;;;;;5014778;28;20772;-71
2023/06/03 12:14:27;;;;;;;7.90;7.20;;;26.70;1.00;;;;;;5015478;28;20411;-73
2023/06/03 12:16:58;;;;;;;7.30;6.70;;;26.80;1.00;;;;;;5016445;28;20207;-72
2023/06/03 12:19:24;;;;;;;7.30;6.80;;;27.00;1.00;;;;;;5015563;28;20411;-73
2023/06/03 12:21:57;;;;;;;8.17;7.47;;;27.00;1.00;;;;;;5014647;28;20434;-72
2023/06/03 12:24:31;;;;;;;7.63;6.73;;;27.10;1.00;;;;;;5015085;28;20415;-72
2023/06/03 12:27:10;;;;;;;8.17;7.37;;;27.00;1.00;;;;;;5015780;28;20413;-72
2023/06/03 12:29:44;;;;;;;8.20;7.30;;;26.80;1.00;;;;;;5013583;28;20545;-71
2023/06/03 12:32:10;;;;;;;9.93;7.57;;;26.60;1.00;;;;;;5015020;28;20447;-72
2023/06/03 12:34:36;;;;;;;8.37;7.60;;;26.50;1.00;;;;;;5015476;28;20430;-72
2023/06/03 12:37:03;;;;;;;7.37;6.63;;;26.40;1.00;;;;;;5018217;28;20459;-71
2023/06/03 12:39:44;;;;;;;8.00;7.40;;;26.40;1.00;;;;;;5017686;28;20255;-71
2023/06/03 12:42:10;;;;;;;7.80;7.20;;;26.30;1.00;;;;;;5016718;28;20427;-73
2023/06/03 12:44:53;;;;;;;8.43;7.63;;;26.10;1.00;;;;;;5016639;28;20422;-73
2023/06/03 12:47:24;;;;;;;8.20;7.50;;;26.40;1.00;;;;;;5018273;28;20422;-73
2023/06/03 12:50:09;;;;;;;7.80;7.20;;;26.40;1.00;;;;;;5016312;28;20824;-73
2023/06/03 12:52:38;;;;;;;7.97;7.37;;;26.60;1.00;;;;;;5014797;28;20817;-73
2023/06/03 12:55:12;;;;;;;7.63;6.93;;;26.70;1.00;;;;;;5015415;28;20423;-72
2023/06/03 12:57:39;;;;;;;11.03;6.30;;;26.20;1.00;;;;;;5014124;28;20411;-73